Time;durP1;ratioP1;P1;durP2;ratioP2;P2;SDS_P1;SDS_P2;PMS_P1;PMS_P2;Temp;Humidity;BMP_temperature;BMP_pressure;BME280_temperature;BME280_humidity;BME280_pressure;Samples;Min_cycle;Max_cycle;Signal;HPM_P1;HPM_P2
2020/12/15 00:01:44;;;;;;;10.23;7.22;;;;;;;;;;6256807;23;20405;-95
2020/12/15 00:04:11;;;;;;;9.90;7.20;;;;;;;;;;6258648;23;20184;-93
2020/12/15 00:06:37;;;;;;;8.50;6.53;;;;;;;;;;6257019;23;20185;-96
2020/12/15 00:09:03;;;;;;;8.70;7.33;;;;;;;;;;6258573;23;21121;-96
2020/12/15 00:11:29;;;;;;;11.47;7.17;;;;;;;;;;6256646;23;20390;-94
2020/12/15 00:13:55;;;;;;;9.83;6.83;;;;;;;;;;6255614;23;20417;-96
2020/12/15 00:16:21;;;;;;;13.30;7.77;;;;;;;;;;6255692;23;20404;-93
2020/12/15 00:18:47;;;;;;;18.53;7.43;;;;;;;;;;6255210;23;20410;-96
2020/12/15 00:21:19;;;;;;;7.07;6.20;;;;;;;;;;6257610;23;20417;-95
2020/12/15 00:23:45;;;;;;;9.90;7.25;;;;;;;;;;6257397;23;20409;-96
2020/12/15 00:26:11;;;;;;;12.03;7.13;;;;;;;;;;6258548;23;20205;-96
2020/12/15 00:28:38;;;;;;;10.87;6.30;;;;;;;;;;6257294;23;20413;-96
2020/12/15 00:31:05;;;;;;;10.43;6.70;;;;;;;;;;6257543;23;20409;-96
2020/12/15 00:33:31;;;;;;;10.30;7.23;;;;;;;;;;6256734;22;21585;-95
2020/12/15 00:35:57;;;;;;;9.07;6.45;;;;;;;;;;6228353;23;20419;-94
2020/12/15 00:38:24;;;;;;;7.90;6.50;;;;;;;;;;6255849;23;20201;-95
2020/12/15 00:40:50;;;;;;;8.50;6.00;;;;;;;;;;6254604;23;21065;-95
2020/12/15 00:43:16;;;;;;;11.70;7.30;;;;;;;;;;6255890;23;20417;-95
2020/12/15 00:45:42;;;;;;;14.23;6.40;;;;;;;;;;6253625;23;20406;-91
2020/12/15 00:48:08;;;;;;;12.23;7.67;;;;;;;;;;6256992;23;20440;-95
2020/12/15 00:50:34;;;;;;;11.27;6.93;;;;;;;;;;6256122;23;20420;-96
2020/12/15 00:53:00;;;;;;;10.80;7.60;;;;;;;;;;6257480;23;20412;-94
2020/12/15 00:55:27;;;;;;;8.17;6.10;;;;;;;;;;6254641;23;20418;-96
2020/12/15 00:57:53;;;;;;;11.27;6.80;;;;;;;;;;6254823;23;20931;-95
2020/12/15 01:00:19;;;;;;;9.70;6.37;;;;;;;;;;6258334;23;20398;-94
2020/12/15 01:02:45;;;;;;;9.73;6.50;;;;;;;;;;6255575;23;20473;-96
2020/12/15 01:05:11;;;;;;;10.17;7.27;;;;;;;;;;6256292;23;20482;-93
2020/12/15 01:07:37;;;;;;;10.07;6.80;;;;;;;;;;6255238;23;20413;-95
2020/12/15 01:10:03;;;;;;;8.07;6.57;;;;;;;;;;6257463;23;20430;-93
2020/12/15 01:12:30;;;;;;;11.03;6.50;;;;;;;;;;6256444;23;20437;-95
2020/12/15 01:14:56;;;;;;;12.03;7.30;;;;;;;;;;6256989;23;20420;-96
2020/12/15 01:17:22;;;;;;;10.07;7.30;;;;;;;;;;6256519;23;20480;-96
2020/12/15 01:19:48;;;;;;;11.37;7.20;;;;;;;;;;6254780;23;20471;-94
2020/12/15 01:22:14;;;;;;;11.00;6.63;;;;;;;;;;6256101;23;20410;-95
2020/12/15 01:24:40;;;;;;;10.07;6.90;;;;;;;;;;6255980;23;20178;-94
2020/12/15 01:27:06;;;;;;;10.90;7.50;;;;;;;;;;6256269;23;20420;-95
2020/12/15 01:29:33;;;;;;;10.43;6.60;;;;;;;;;;6254730;23;20405;-94
2020/12/15 01:32:00;;;;;;;10.10;6.93;;;;;;;;;;6257222;23;20420;-96
2020/12/15 01:34:29;;;;;;;11.93;7.70;;;;;;;;;;6256963;23;20443;-95
2020/12/15 01:36:56;;;;;;;14.10;8.90;;;;;;;;;;6259814;23;20473;-95
2020/12/15 01:39:25;;;;;;;15.50;8.10;;;;;;;;;;6265871;22;20409;-94
2020/12/15 01:41:51;;;;;;;14.33;8.60;;;;;;;;;;6269076;23;20487;-93
2020/12/15 01:44:17;;;;;;;12.43;8.00;;;;;;;;;;6260618;23;20417;-95
2020/12/15 01:46:44;;;;;;;11.77;8.00;;;;;;;;;;6255324;23;20409;-95
2020/12/15 01:49:10;;;;;;;11.87;8.30;;;;;;;;;;6257259;23;20428;-96
2020/12/15 01:51:37;;;;;;;11.77;8.40;;;;;;;;;;6256071;23;20423;-96
2020/12/15 01:54:03;;;;;;;13.00;8.10;;;;;;;;;;6257079;23;20416;-96
2020/12/15 01:56:30;;;;;;;11.67;7.73;;;;;;;;;;6256035;23;20425;-96
2020/12/15 01:58:57;;;;;;;9.57;8.07;;;;;;;;;;6257605;23;20405;-95
2020/12/15 02:01:26;;;;;;;12.07;8.00;;;;;;;;;;6259479;23;20813;-96
2020/12/15 02:03:53;;;;;;;11.60;8.80;;;;;;;;;;6257960;23;20421;-95
2020/12/15 02:06:20;;;;;;;15.47;8.73;;;;;;;;;;6256279;23;20489;-96
2020/12/15 02:08:46;;;;;;;11.23;8.30;;;;;;;;;;6255322;23;20470;-95
2020/12/15 02:11:13;;;;;;;14.50;8.40;;;;;;;;;;6257126;23;21466;-95
2020/12/15 02:13:39;;;;;;;12.13;8.73;;;;;;;;;;6255622;23;20436;-95
2020/12/15 02:16:05;;;;;;;10.67;7.73;;;;;;;;;;6258056;23;20410;-96
2020/12/15 02:18:31;;;;;;;13.40;8.57;;;;;;;;;;6255031;23;20448;-95
2020/12/15 02:20:58;;;;;;;14.05;8.30;;;;;;;;;;6256077;23;20401;-95
2020/12/15 02:23:25;;;;;;;10.63;8.20;;;;;;;;;;6254401;23;20173;-96
2020/12/15 02:25:51;;;;;;;16.30;8.93;;;;;;;;;;6256777;23;20401;-95
2020/12/15 02:28:17;;;;;;;13.13;8.43;;;;;;;;;;6257108;23;20402;-96
2020/12/15 02:30:43;;;;;;;11.33;7.80;;;;;;;;;;6255483;23;20417;-95
2020/12/15 02:33:09;;;;;;;19.55;9.05;;;;;;;;;;6256493;23;20497;-96
2020/12/15 02:35:35;;;;;;;11.60;7.87;;;;;;;;;;6255473;23;20199;-95
2020/12/15 02:38:02;;;;;;;13.55;9.15;;;;;;;;;;6257389;23;20448;-95
2020/12/15 02:40:29;;;;;;;10.50;7.90;;;;;;;;;;6255731;23;20179;-94
2020/12/15 02:42:55;;;;;;;12.60;8.47;;;;;;;;;;6256658;23;20402;-94
2020/12/15 02:45:21;;;;;;;12.37;9.20;;;;;;;;;;6255880;23;20414;-95
2020/12/15 02:47:47;;;;;;;16.57;10.67;;;;;;;;;;6254969;23;20397;-95
2020/12/15 02:50:16;;;;;;;12.90;9.33;;;;;;;;;;6257341;22;20408;-94
2020/12/15 02:52:42;;;;;;;10.63;9.20;;;;;;;;;;6254852;23;20406;-95
2020/12/15 02:55:08;;;;;;;13.00;8.60;;;;;;;;;;6255823;23;20413;-95
2020/12/15 02:57:35;;;;;;;12.53;7.40;;;;;;;;;;6254778;23;20449;-95
2020/12/15 03:00:01;;;;;;;14.23;8.60;;;;;;;;;;6256855;23;20405;-95
2020/12/15 03:02:27;;;;;;;10.80;7.83;;;;;;;;;;6255285;23;20414;-95
2020/12/15 03:04:53;;;;;;;13.07;8.80;;;;;;;;;;6256562;23;20417;-95
2020/12/15 03:07:19;;;;;;;13.30;9.63;;;;;;;;;;6255164;23;20424;-95
2020/12/15 03:09:46;;;;;;;13.20;9.47;;;;;;;;;;6256156;23;20409;-95
2020/12/15 03:12:12;;;;;;;12.50;8.60;;;;;;;;;;6256494;23;20727;-95
2020/12/15 03:14:39;;;;;;;11.30;8.20;;;;;;;;;;6253966;22;20178;-96
2020/12/15 03:17:05;;;;;;;16.85;8.20;;;;;;;;;;6255147;23;20429;-95
2020/12/15 03:19:31;;;;;;;13.93;8.10;;;;;;;;;;6255706;23;20178;-94
2020/12/15 03:21:58;;;;;;;12.00;8.57;;;;;;;;;;6264319;23;20481;-95
2020/12/15 03:24:24;;;;;;;15.73;10.30;;;;;;;;;;6264598;23;20425;-95
2020/12/15 03:26:50;;;;;;;15.50;10.10;;;;;;;;;;6272130;22;20421;-95
2020/12/15 03:29:16;;;;;;;12.50;8.70;;;;;;;;;;6269368;22;20427;-95
2020/12/15 03:31:43;;;;;;;13.80;9.53;;;;;;;;;;6255143;23;20413;-95
2020/12/15 03:34:09;;;;;;;11.30;8.13;;;;;;;;;;6258722;23;20951;-96
2020/12/15 03:36:35;;;;;;;12.57;8.10;;;;;;;;;;6231407;23;20404;-95
2020/12/15 03:39:01;;;;;;;12.27;8.23;;;;;;;;;;6263401;23;20453;-96
2020/12/15 03:41:27;;;;;;;11.53;8.50;;;;;;;;;;6257742;23;20469;-96
2020/12/15 03:43:53;;;;;;;11.27;7.87;;;;;;;;;;6259250;22;20444;-96
2020/12/15 03:46:20;;;;;;;10.87;8.40;;;;;;;;;;6256688;23;20402;-95
2020/12/15 03:48:46;;;;;;;13.67;8.97;;;;;;;;;;6257811;23;20425;-95
2020/12/15 03:51:13;;;;;;;13.20;8.80;;;;;;;;;;6257776;23;20406;-96
2020/12/15 03:53:39;;;;;;;12.47;8.47;;;;;;;;;;6256999;23;20414;-96
2020/12/15 03:56:05;;;;;;;11.70;9.00;;;;;;;;;;6256236;23;20417;-96
2020/12/15 03:58:31;;;;;;;9.43;7.60;;;;;;;;;;6254865;23;20442;-96
2020/12/15 04:00:57;;;;;;;11.93;8.73;;;;;;;;;;6256463;23;20837;-96
2020/12/15 04:03:23;;;;;;;11.70;8.20;;;;;;;;;;6256354;23;20410;-96
2020/12/15 04:05:50;;;;;;;13.75;9.45;;;;;;;;;;6256340;23;20414;-95
2020/12/15 04:08:16;;;;;;;17.13;11.20;;;;;;;;;;6255176;23;20182;-94
2020/12/15 04:10:42;;;;;;;17.63;11.25;;;;;;;;;;6255932;23;20422;-95
2020/12/15 04:13:11;;;;;;;17.50;11.60;;;;;;;;;;6256498;23;20174;-94
2020/12/15 04:15:37;;;;;;;15.17;11.83;;;;;;;;;;6257059;23;20487;-95
2020/12/15 04:18:03;;;;;;;12.57;10.50;;;;;;;;;;6256651;23;20449;-95
2020/12/15 04:20:29;;;;;;;13.90;11.40;;;;;;;;;;6254960;23;20410;-95
2020/12/15 04:22:56;;;;;;;16.60;11.53;;;;;;;;;;6256461;23;20412;-95
2020/12/15 04:25:22;;;;;;;17.07;12.50;;;;;;;;;;6253975;23;20421;-94
2020/12/15 04:27:48;;;;;;;18.05;11.88;;;;;;;;;;6255993;23;20397;-95
2020/12/15 04:30:14;;;;;;;14.40;11.20;;;;;;;;;;6254423;23;20183;-95
2020/12/15 04:32:40;;;;;;;16.67;12.00;;;;;;;;;;6256472;23;20410;-96
2020/12/15 04:35:06;;;;;;;17.40;12.73;;;;;;;;;;6257939;23;20433;-96
2020/12/15 04:37:33;;;;;;;16.90;11.23;;;;;;;;;;6257774;23;20453;-96
2020/12/15 04:40:00;;;;;;;16.93;11.97;;;;;;;;;;6258194;23;20477;-96
2020/12/15 04:42:26;;;;;;;16.60;11.30;;;;;;;;;;6257330;23;20406;-96
2020/12/15 04:44:52;;;;;;;16.93;12.40;;;;;;;;;;6258115;23;20413;-95
2020/12/15 04:47:19;;;;;;;18.13;11.53;;;;;;;;;;6256854;23;20451;-96
2020/12/15 04:49:55;;;;;;;20.63;12.57;;;;;;;;;;6257098;23;20473;-96
2020/12/15 04:52:22;;;;;;;16.10;12.03;;;;;;;;;;6255644;23;21000;-96
2020/12/15 04:54:49;;;;;;;15.50;12.20;;;;;;;;;;6257322;23;20415;-96
2020/12/15 04:57:19;;;;;;;16.53;11.57;;;;;;;;;;6256911;23;20437;-95
2020/12/15 04:59:47;;;;;;;18.37;12.73;;;;;;;;;;6256308;23;20402;-95
2020/12/15 05:02:13;;;;;;;17.90;11.43;;;;;;;;;;6258428;23;20437;-96
2020/12/15 05:04:39;;;;;;;18.97;11.93;;;;;;;;;;6257583;23;20419;-95
2020/12/15 05:07:06;;;;;;;13.23;10.60;;;;;;;;;;6258056;23;20916;-96
2020/12/15 05:09:33;;;;;;;23.53;10.83;;;;;;;;;;6257748;23;20401;-96
2020/12/15 05:11:59;;;;;;;12.47;10.23;;;;;;;;;;6260562;23;20416;-96
2020/12/15 05:14:26;;;;;;;16.30;11.63;;;;;;;;;;6267494;22;20498;-93
2020/12/15 05:16:52;;;;;;;13.52;9.60;;;;;;;;;;6269789;22;20439;-95
2020/12/15 05:19:19;;;;;;;15.30;10.30;;;;;;;;;;6257683;23;20182;-96
2020/12/15 05:21:55;;;;;;;11.68;10.00;;;;;;;;;;6256308;23;20493;-96
2020/12/15 05:24:22;;;;;;;14.57;10.30;;;;;;;;;;6257846;23;20567;-96
2020/12/15 05:26:48;;;;;;;11.47;9.50;;;;;;;;;;6255144;23;20420;-94
2020/12/15 05:29:17;;;;;;;13.03;9.57;;;;;;;;;;6256827;23;20402;-95
2020/12/15 05:31:44;;;;;;;12.40;8.70;;;;;;;;;;6254963;23;20439;-96
2020/12/15 05:34:11;;;;;;;15.83;9.77;;;;;;;;;;6256906;23;20433;-94
2020/12/15 05:36:48;;;;;;;13.25;9.63;;;;;;;;;;6254351;23;20413;-95
2020/12/15 05:39:14;;;;;;;12.50;9.10;;;;;;;;;;6255214;23;20205;-95
2020/12/15 05:41:40;;;;;;;13.00;8.93;;;;;;;;;;6255241;23;20402;-96
2020/12/15 05:44:06;;;;;;;13.80;10.07;;;;;;;;;;6255026;23;20204;-95
2020/12/15 05:46:33;;;;;;;13.20;10.00;;;;;;;;;;6253685;23;20175;-96
2020/12/15 05:49:04;;;;;;;13.48;9.15;;;;;;;;;;6253815;23;20415;-95
2020/12/15 05:51:40;;;;;;;16.20;9.87;;;;;;;;;;6254450;23;20175;-95
2020/12/15 05:54:08;;;;;;;16.40;10.60;;;;;;;;;;6248765;23;20467;-96
2020/12/15 05:56:34;;;;;;;13.77;9.50;;;;;;;;;;6248712;23;20170;-96
2020/12/15 05:59:00;;;;;;;14.40;10.37;;;;;;;;;;6246706;23;20570;-96
2020/12/15 06:01:27;;;;;;;12.30;8.90;;;;;;;;;;6249789;22;20424;-96
2020/12/15 06:03:58;;;;;;;14.47;10.03;;;;;;;;;;6248764;23;20451;-96
2020/12/15 06:06:25;;;;;;;13.30;9.50;;;;;;;;;;6249918;23;20429;-96
2020/12/15 06:08:52;;;;;;;12.00;9.90;;;;;;;;;;6256060;23;20438;-96
2020/12/15 06:11:19;;;;;;;12.67;9.90;;;;;;;;;;6257994;23;20445;-96
2020/12/15 06:13:45;;;;;;;16.77;11.70;;;;;;;;;;6258422;23;20410;-96
2020/12/15 06:16:11;;;;;;;16.83;10.43;;;;;;;;;;6255980;23;20425;-96
2020/12/15 06:18:38;;;;;;;14.10;10.20;;;;;;;;;;6256794;23;20512;-96
2020/12/15 06:21:08;;;;;;;19.57;15.47;;;;;;;;;;6256650;22;20465;-96
2020/12/15 06:23:35;;;;;;;22.03;13.23;;;;;;;;;;6256143;23;20493;-96
2020/12/15 06:26:01;;;;;;;27.00;17.30;;;;;;;;;;6254231;23;20463;-95
2020/12/15 06:28:31;;;;;;;29.60;19.50;;;;;;;;;;6257083;23;20417;-96
2020/12/15 06:30:58;;;;;;;28.60;19.27;;;;;;;;;;6257865;23;20424;-96
2020/12/15 06:33:33;;;;;;;24.40;19.30;;;;;;;;;;6257398;23;20402;-96
2020/12/15 06:35:59;;;;;;;27.93;18.33;;;;;;;;;;6255111;23;20411;-96
2020/12/15 06:38:25;;;;;;;23.10;16.70;;;;;;;;;;6255705;23;20456;-96
2020/12/15 06:40:52;;;;;;;16.60;12.20;;;;;;;;;;6256535;23;20489;-96
2020/12/15 06:43:24;;;;;;;17.57;13.07;;;;;;;;;;6254790;23;20817;-96
2020/12/15 06:45:50;;;;;;;17.20;11.73;;;;;;;;;;6261856;23;20441;-96
2020/12/15 06:48:23;;;;;;;20.80;13.20;;;;;;;;;;6260197;22;20448;-96
2020/12/15 06:50:52;;;;;;;16.63;11.60;;;;;;;;;;6265672;23;20397;-96
2020/12/15 06:53:19;;;;;;;18.57;12.80;;;;;;;;;;6236665;23;20413;-96
2020/12/15 06:55:46;;;;;;;22.20;16.30;;;;;;;;;;6264667;23;20440;-96
2020/12/15 06:58:22;;;;;;;21.77;15.00;;;;;;;;;;6265962;23;20453;-94
2020/12/15 07:00:48;;;;;;;21.80;17.00;;;;;;;;;;6271436;23;20480;-95
2020/12/15 07:03:16;;;;;;;23.40;17.20;;;;;;;;;;6260860;23;20435;-96
2020/12/15 07:05:50;;;;;;;23.03;16.23;;;;;;;;;;6262110;23;20399;-95
2020/12/15 07:08:16;;;;;;;24.37;18.20;;;;;;;;;;6255567;23;20833;-96
2020/12/15 07:10:42;;;;;;;29.03;18.63;;;;;;;;;;6254900;23;20463;-95
2020/12/15 07:13:11;;;;;;;26.37;17.90;;;;;;;;;;6256739;23;20409;-95
2020/12/15 07:15:38;;;;;;;23.27;16.97;;;;;;;;;;6256559;23;20409;-95
2020/12/15 07:18:04;;;;;;;21.20;15.63;;;;;;;;;;6258903;23;20516;-96
2020/12/15 07:20:31;;;;;;;26.87;16.23;;;;;;;;;;6258712;23;20413;-96
2020/12/15 07:22:57;;;;;;;23.60;16.50;;;;;;;;;;6258807;23;20431;-96
2020/12/15 07:25:23;;;;;;;22.73;16.00;;;;;;;;;;6258239;23;20789;-96
2020/12/15 07:27:49;;;;;;;22.03;16.53;;;;;;;;;;6256540;23;20422;-96
2020/12/15 07:30:16;;;;;;;22.43;15.67;;;;;;;;;;6258142;22;20467;-96
2020/12/15 07:32:44;;;;;;;19.93;15.50;;;;;;;;;;6229037;23;20431;-96
2020/12/15 07:35:17;;;;;;;24.97;16.43;;;;;;;;;;6239860;23;20423;-96
2020/12/15 07:37:54;;;;;;;23.53;16.50;;;;;;;;;;6238846;23;20430;-96
2020/12/15 07:43:08;;;;;;;23.53;14.30;;;;;;;;;;6253636;22;20468;-96
2020/12/15 07:45:49;;;;;;;18.77;14.70;;;;;;;;;;6272574;23;20406;-96
2020/12/15 07:48:27;;;;;;;23.77;16.47;;;;;;;;;;6271612;23;20425;-96
2020/12/15 07:51:03;;;;;;;23.43;16.87;;;;;;;;;;6259651;23;20519;-96
2020/12/15 07:53:29;;;;;;;26.60;16.77;;;;;;;;;;6257253;23;20405;-96
2020/12/15 07:56:02;;;;;;;22.63;16.77;;;;;;;;;;6260510;23;21259;-95
2020/12/15 07:58:29;;;;;;;23.50;17.70;;;;;;;;;;6255553;23;20449;-94
2020/12/15 08:00:55;;;;;;;22.13;16.90;;;;;;;;;;6252584;23;20413;-94
2020/12/15 08:03:22;;;;;;;22.33;15.20;;;;;;;;;;6247967;23;20410;-94
2020/12/15 08:05:48;;;;;;;18.90;14.37;;;;;;;;;;6246479;23;20421;-94
2020/12/15 08:08:15;;;;;;;24.63;16.40;;;;;;;;;;6247959;23;20414;-94
2020/12/15 08:10:41;;;;;;;24.30;15.60;;;;;;;;;;6245590;23;20421;-94
2020/12/15 08:13:07;;;;;;;18.63;14.10;;;;;;;;;;6247149;23;20421;-94
2020/12/15 08:15:37;;;;;;;19.93;13.50;;;;;;;;;;6246777;23;20410;-94
2020/12/15 08:18:03;;;;;;;16.73;12.70;;;;;;;;;;6253271;23;20452;-93
2020/12/15 08:20:31;;;;;;;22.97;14.97;;;;;;;;;;6257856;23;20409;-94
2020/12/15 08:23:04;;;;;;;21.53;14.67;;;;;;;;;;6254887;23;20409;-94
2020/12/15 08:25:30;;;;;;;19.80;14.20;;;;;;;;;;6255588;23;20405;-94
2020/12/15 08:28:05;;;;;;;21.57;14.07;;;;;;;;;;6251076;23;20508;-93
2020/12/15 08:30:31;;;;;;;19.53;14.70;;;;;;;;;;6254655;23;20405;-93
2020/12/15 08:32:58;;;;;;;22.00;16.10;;;;;;;;;;6254781;23;20413;-93
2020/12/15 08:35:27;;;;;;;23.67;17.40;;;;;;;;;;6257410;23;20441;-93
2020/12/15 08:37:56;;;;;;;19.17;15.43;;;;;;;;;;6255848;23;20453;-93
2020/12/15 08:40:22;;;;;;;23.00;17.63;;;;;;;;;;6256227;23;20428;-93
2020/12/15 08:42:48;;;;;;;24.47;15.93;;;;;;;;;;6260416;23;20456;-91
2020/12/15 08:45:14;;;;;;;24.37;14.07;;;;;;;;;;6265827;23;20679;-93
2020/12/15 08:47:47;;;;;;;18.90;14.40;;;;;;;;;;6256832;23;20425;-95
2020/12/15 08:50:14;;;;;;;22.03;16.17;;;;;;;;;;6253269;23;20408;-94
2020/12/15 08:52:41;;;;;;;27.13;17.27;;;;;;;;;;6254500;23;20440;-94
2020/12/15 08:55:08;;;;;;;23.23;14.70;;;;;;;;;;6255105;23;20408;-94
2020/12/15 08:57:34;;;;;;;19.30;14.27;;;;;;;;;;6255883;23;20445;-94
2020/12/15 09:00:13;;;;;;;20.30;15.03;;;;;;;;;;6254771;23;20402;-93
2020/12/15 09:02:39;;;;;;;20.10;14.63;;;;;;;;;;6255615;23;20405;-93
2020/12/15 09:05:06;;;;;;;21.70;15.27;;;;;;;;;;6252467;23;20425;-94
2020/12/15 09:07:32;;;;;;;22.53;14.77;;;;;;;;;;6254255;23;20432;-93
2020/12/15 09:10:09;;;;;;;19.40;14.27;;;;;;;;;;6252760;23;20436;-93
2020/12/15 09:12:35;;;;;;;19.73;14.27;;;;;;;;;;6253939;23;20471;-93
2020/12/15 09:15:01;;;;;;;22.77;14.07;;;;;;;;;;6254812;23;20764;-95
2020/12/15 09:17:27;;;;;;;19.30;14.80;;;;;;;;;;6252549;23;20410;-95
2020/12/15 09:19:53;;;;;;;19.23;14.30;;;;;;;;;;6255771;23;20525;-95
2020/12/15 09:22:19;;;;;;;23.63;15.43;;;;;;;;;;6254525;23;20414;-94
2020/12/15 09:24:46;;;;;;;22.70;16.10;;;;;;;;;;6256148;23;20420;-93
2020/12/15 09:27:18;;;;;;;27.30;16.37;;;;;;;;;;6253784;23;20453;-94
2020/12/15 09:29:44;;;;;;;27.40;17.70;;;;;;;;;;6256151;23;20446;-94
2020/12/15 09:32:10;;;;;;;20.97;16.33;;;;;;;;;;6255144;23;20803;-94
2020/12/15 09:34:37;;;;;;;22.63;17.03;;;;;;;;;;6255676;23;20408;-93
2020/12/15 09:37:03;;;;;;;29.57;17.70;;;;;;;;;;6256692;23;20406;-94
2020/12/15 09:39:30;;;;;;;26.57;18.40;;;;;;;;;;6253736;23;20440;-94
2020/12/15 09:41:57;;;;;;;23.33;18.33;;;;;;;;;;6256303;23;20754;-94
2020/12/15 09:44:24;;;;;;;25.30;18.37;;;;;;;;;;6253955;23;20434;-94
2020/12/15 09:46:50;;;;;;;22.67;17.30;;;;;;;;;;6256330;23;20402;-94
2020/12/15 09:49:16;;;;;;;21.60;16.93;;;;;;;;;;6254571;23;20471;-94
2020/12/15 09:51:42;;;;;;;22.93;16.50;;;;;;;;;;6255905;23;20410;-93
2020/12/15 09:54:09;;;;;;;26.00;17.87;;;;;;;;;;6254086;23;20413;-95
2020/12/15 09:56:36;;;;;;;26.63;17.67;;;;;;;;;;6255098;23;20413;-95
2020/12/15 09:59:02;;;;;;;23.50;16.30;;;;;;;;;;6254281;23;20444;-94
2020/12/15 10:01:29;;;;;;;23.67;16.70;;;;;;;;;;6254482;23;20402;-94
2020/12/15 10:03:58;;;;;;;21.20;15.70;;;;;;;;;;6255663;23;20443;-94
2020/12/15 10:06:24;;;;;;;17.73;13.37;;;;;;;;;;6253972;23;20461;-94
2020/12/15 10:08:50;;;;;;;15.13;10.53;;;;;;;;;;6254988;23;20406;-93
2020/12/15 10:11:16;;;;;;;15.10;10.40;;;;;;;;;;6255039;23;20406;-94
2020/12/15 10:13:42;;;;;;;14.13;10.70;;;;;;;;;;6255096;23;20418;-94
2020/12/15 10:16:09;;;;;;;12.10;9.57;;;;;;;;;;6253561;23;20444;-95
2020/12/15 10:18:36;;;;;;;17.97;10.27;;;;;;;;;;6255069;23;20457;-95
2020/12/15 10:21:03;;;;;;;14.80;10.23;;;;;;;;;;6255830;23;20413;-94
2020/12/15 10:23:29;;;;;;;13.77;9.37;;;;;;;;;;6254510;23;20406;-94
2020/12/15 10:25:56;;;;;;;12.40;9.73;;;;;;;;;;6259584;23;20406;-94
2020/12/15 10:28:22;;;;;;;12.50;8.77;;;;;;;;;;6262984;23;20491;-92
2020/12/15 10:30:48;;;;;;;11.43;9.10;;;;;;;;;;6257728;23;20418;-94
2020/12/15 10:33:14;;;;;;;9.93;8.07;;;;;;;;;;6257243;23;20434;-94
2020/12/15 10:35:41;;;;;;;10.30;7.63;;;;;;;;;;6253078;23;20473;-92
2020/12/15 10:38:07;;;;;;;12.30;7.40;;;;;;;;;;6255171;23;21053;-92
2020/12/15 10:40:33;;;;;;;9.83;7.70;;;;;;;;;;6257597;23;20408;-94
2020/12/15 10:42:59;;;;;;;13.60;8.87;;;;;;;;;;6256378;22;20443;-95
2020/12/15 10:45:25;;;;;;;14.50;7.37;;;;;;;;;;6258694;23;20409;-93
2020/12/15 10:47:51;;;;;;;12.57;7.70;;;;;;;;;;6258829;23;20402;-95
2020/12/15 10:50:17;;;;;;;10.20;8.07;;;;;;;;;;6258246;23;20432;-93
2020/12/15 10:52:44;;;;;;;10.90;8.87;;;;;;;;;;6259457;23;20410;-93
2020/12/15 10:55:11;;;;;;;8.10;6.90;;;;;;;;;;6254406;23;20454;-94
2020/12/15 10:57:37;;;;;;;9.63;7.27;;;;;;;;;;6255714;23;20417;-93
2020/12/15 11:00:03;;;;;;;10.10;7.80;;;;;;;;;;6257879;23;20413;-92
2020/12/15 11:02:29;;;;;;;8.87;6.53;;;;;;;;;;6258913;23;20393;-93
2020/12/15 11:04:55;;;;;;;10.30;7.00;;;;;;;;;;6259252;23;20409;-92
2020/12/15 11:07:21;;;;;;;7.40;6.40;;;;;;;;;;6257344;23;20431;-92
2020/12/15 11:09:48;;;;;;;9.60;6.80;;;;;;;;;;6258029;23;20420;-93
2020/12/15 11:12:14;;;;;;;9.70;8.13;;;;;;;;;;6255464;23;20416;-92
2020/12/15 11:14:40;;;;;;;15.30;8.87;;;;;;;;;;6257250;23;20405;-93
2020/12/15 11:17:06;;;;;;;10.90;7.67;;;;;;;;;;6254109;22;20416;-95
2020/12/15 11:19:33;;;;;;;10.40;7.03;;;;;;;;;;6257009;23;20476;-93
2020/12/15 11:21:59;;;;;;;9.23;7.33;;;;;;;;;;6255764;23;20420;-92
2020/12/15 11:24:25;;;;;;;12.00;8.73;;;;;;;;;;6253509;23;20411;-93
2020/12/15 11:26:52;;;;;;;8.17;7.00;;;;;;;;;;6256953;23;20417;-96
2020/12/15 11:29:18;;;;;;;10.03;6.70;;;;;;;;;;6257089;23;21319;-93
2020/12/15 11:31:48;;;;;;;8.57;7.03;;;;;;;;;;6258490;23;20414;-92
2020/12/15 11:34:14;;;;;;;9.93;7.20;;;;;;;;;;6255954;23;20411;-92
2020/12/15 11:36:40;;;;;;;7.97;6.63;;;;;;;;;;6255916;23;20417;-92
2020/12/15 11:39:06;;;;;;;11.73;8.10;;;;;;;;;;6256802;23;20464;-92
2020/12/15 11:41:34;;;;;;;9.43;7.17;;;;;;;;;;6257322;23;20406;-93
2020/12/15 11:44:01;;;;;;;11.87;7.70;;;;;;;;;;6255674;23;20464;-92
2020/12/15 11:46:27;;;;;;;7.50;6.10;;;;;;;;;;6257055;23;20414;-93
2020/12/15 11:48:53;;;;;;;8.50;6.30;;;;;;;;;;6256638;23;20421;-93
2020/12/15 11:51:19;;;;;;;10.97;6.40;;;;;;;;;;6254006;23;20405;-93
2020/12/15 11:53:47;;;;;;;7.57;6.13;;;;;;;;;;6256988;23;20425;-93
2020/12/15 11:56:15;;;;;;;8.40;6.73;;;;;;;;;;6255161;23;20911;-95
2020/12/15 11:58:41;;;;;;;7.87;6.87;;;;;;;;;;6257825;23;20487;-92
2020/12/15 12:01:08;;;;;;;7.53;6.73;;;;;;;;;;6256324;23;20406;-94
2020/12/15 12:03:34;;;;;;;9.27;7.27;;;;;;;;;;6257816;23;20402;-95
2020/12/15 12:06:00;;;;;;;8.20;7.10;;;;;;;;;;6255172;23;20417;-93
2020/12/15 12:08:27;;;;;;;8.47;7.57;;;;;;;;;;6258391;23;20420;-93
2020/12/15 12:10:52;;;;;;;7.93;6.47;;;;;;;;;;6263576;23;20410;-92
2020/12/15 12:13:19;;;;;;;8.47;6.67;;;;;;;;;;6261521;23;20418;-93
2020/12/15 12:15:44;;;;;;;9.00;7.57;;;;;;;;;;6257120;23;20416;-94
2020/12/15 12:18:11;;;;;;;8.47;6.77;;;;;;;;;;6254943;23;20449;-94
2020/12/15 12:20:37;;;;;;;11.37;8.70;;;;;;;;;;6256866;23;20475;-94
2020/12/15 12:23:04;;;;;;;10.03;8.57;;;;;;;;;;6255514;23;20417;-93
2020/12/15 12:25:30;;;;;;;10.97;7.83;;;;;;;;;;6257062;23;20401;-96
2020/12/15 12:27:56;;;;;;;13.30;8.60;;;;;;;;;;6255728;23;20456;-94
2020/12/15 12:30:22;;;;;;;9.50;7.63;;;;;;;;;;6257402;23;20409;-94
2020/12/15 12:32:49;;;;;;;9.23;7.77;;;;;;;;;;6257491;23;20467;-94
2020/12/15 12:35:16;;;;;;;11.30;7.87;;;;;;;;;;6253155;23;20862;-94
2020/12/15 12:37:42;;;;;;;11.27;8.60;;;;;;;;;;6255528;23;20410;-94
2020/12/15 12:40:09;;;;;;;9.70;8.60;;;;;;;;;;6252466;23;20417;-94
2020/12/15 12:42:35;;;;;;;9.23;7.67;;;;;;;;;;6247606;23;20488;-94
2020/12/15 12:45:02;;;;;;;11.70;7.83;;;;;;;;;;6248995;23;20410;-95
2020/12/15 12:47:28;;;;;;;10.20;7.67;;;;;;;;;;6250129;23;20413;-94
2020/12/15 12:49:54;;;;;;;14.67;8.73;;;;;;;;;;6249278;23;20467;-94
2020/12/15 12:52:21;;;;;;;10.03;8.83;;;;;;;;;;6249376;23;20474;-94
2020/12/15 12:54:47;;;;;;;15.03;10.50;;;;;;;;;;6250318;23;20441;-94
2020/12/15 12:57:13;;;;;;;14.97;10.23;;;;;;;;;;6255411;23;20430;-94
2020/12/15 12:59:39;;;;;;;13.90;9.00;;;;;;;;;;6255049;23;21470;-94
2020/12/15 13:02:05;;;;;;;14.37;11.70;;;;;;;;;;6252689;23;20441;-93
2020/12/15 13:04:31;;;;;;;17.67;11.10;;;;;;;;;;6253871;23;20414;-93
2020/12/15 13:06:57;;;;;;;12.80;8.80;;;;;;;;;;6252431;23;20986;-93
2020/12/15 13:09:28;;;;;;;15.27;9.10;;;;;;;;;;6255040;23;20418;-94
2020/12/15 13:11:54;;;;;;;9.63;7.40;;;;;;;;;;6252705;23;20425;-94
2020/12/15 13:14:20;;;;;;;9.30;7.73;;;;;;;;;;6256892;23;20425;-94
2020/12/15 13:16:46;;;;;;;9.97;8.70;;;;;;;;;;6256530;23;20406;-94
2020/12/15 13:19:12;;;;;;;11.97;8.87;;;;;;;;;;6254705;23;20771;-95
2020/12/15 13:21:39;;;;;;;17.33;9.00;;;;;;;;;;6256119;23;20461;-95
2020/12/15 13:24:05;;;;;;;12.33;9.20;;;;;;;;;;6255018;23;20428;-93
2020/12/15 13:26:32;;;;;;;19.57;11.47;;;;;;;;;;6257100;23;20401;-93
2020/12/15 13:28:58;;;;;;;13.90;9.17;;;;;;;;;;6254268;23;20464;-94
2020/12/15 13:31:24;;;;;;;12.40;9.33;;;;;;;;;;6254362;23;20409;-93
2020/12/15 13:33:50;;;;;;;12.90;8.90;;;;;;;;;;6255080;23;20413;-94
2020/12/15 13:36:17;;;;;;;18.43;10.57;;;;;;;;;;6258047;23;20409;-95
2020/12/15 13:38:43;;;;;;;15.00;10.60;;;;;;;;;;6257986;23;20448;-95
2020/12/15 13:41:10;;;;;;;12.90;10.10;;;;;;;;;;6231595;23;20414;-95
2020/12/15 13:43:37;;;;;;;12.97;10.93;;;;;;;;;;6257153;23;20445;-95
2020/12/15 13:46:05;;;;;;;15.33;10.00;;;;;;;;;;6257718;22;20417;-94
2020/12/15 13:48:37;;;;;;;15.60;9.63;;;;;;;;;;6266450;23;20407;-96
2020/12/15 13:51:03;;;;;;;15.73;10.23;;;;;;;;;;6255659;23;20416;-95
2020/12/15 13:53:29;;;;;;;16.40;9.53;;;;;;;;;;6259885;23;20393;-96
2020/12/15 13:55:55;;;;;;;13.43;10.90;;;;;;;;;;6260558;23;20398;-94
2020/12/15 13:58:23;;;;;;;17.50;11.53;;;;;;;;;;6270196;22;20467;-96
2020/12/15 14:00:50;;;;;;;26.63;16.50;;;;;;;;;;6260774;23;20502;-95
2020/12/15 14:03:16;;;;;;;15.70;10.77;;;;;;;;;;6255602;23;20499;-94
2020/12/15 14:05:43;;;;;;;12.93;10.30;;;;;;;;;;6261857;23;20445;-96
2020/12/15 14:08:12;;;;;;;14.27;9.83;;;;;;;;;;6269096;23;20440;-96
2020/12/15 14:10:38;;;;;;;22.20;12.73;;;;;;;;;;6259017;23;20453;-95
2020/12/15 14:13:04;;;;;;;18.83;12.90;;;;;;;;;;6255615;23;20456;-96
2020/12/15 14:15:30;;;;;;;26.87;18.50;;;;;;;;;;6258743;23;20414;-96
2020/12/15 14:17:57;;;;;;;27.47;17.83;;;;;;;;;;6256555;23;20447;-96
2020/12/15 14:20:23;;;;;;;26.07;16.83;;;;;;;;;;6258592;23;20409;-96
2020/12/15 14:22:50;;;;;;;32.57;22.07;;;;;;;;;;6260727;23;20422;-96
2020/12/15 14:25:16;;;;;;;27.20;19.10;;;;;;;;;;6257804;23;20641;-94
2020/12/15 14:27:42;;;;;;;40.20;19.83;;;;;;;;;;6258576;23;20444;-96